createdAt,value
2018-01-21T05:00:37.164Z,1003.04
2018-01-21T05:01:02.652Z,1003
2018-01-21T05:01:28.102Z,1003.06
2018-01-21T05:01:53.576Z,1003.07
2018-01-21T05:02:19.037Z,1003.06
2018-01-21T05:02:44.517Z,1003.06
2018-01-21T05:03:10.013Z,1003.07
2018-01-21T05:03:35.470Z,1003.1
2018-01-21T05:04:00.918Z,1003.07
2018-01-21T05:04:26.392Z,1003.06
2018-01-21T05:04:51.860Z,1003.07
2018-01-21T05:05:17.319Z,1003.06
2018-01-21T05:05:42.789Z,1003.01
2018-01-21T05:06:08.248Z,1003.06
2018-01-21T05:06:33.714Z,1003.08
2018-01-21T05:06:59.181Z,1003.05
2018-01-21T05:08:18.078Z,1003.11
2018-01-21T05:08:43.578Z,1003.08
2018-01-21T05:09:09.057Z,1003.09
2018-01-21T05:09:34.517Z,1003.11
2018-01-21T05:09:59.976Z,1003.11
2018-01-21T05:10:25.444Z,1003.13
2018-01-21T05:10:50.902Z,1003.13
2018-01-21T05:11:16.339Z,1003.12
2018-01-21T05:11:41.798Z,1003.17
2018-01-21T05:12:07.250Z,1003.13
2018-01-21T05:12:32.709Z,1003.16
2018-01-21T05:12:58.145Z,1003.18
2018-01-21T05:13:23.604Z,1003.2
2018-01-21T05:13:49.078Z,1003.22
2018-01-21T05:14:14.527Z,1003.21
2018-01-21T05:14:39.973Z,1003.2
2018-01-21T05:15:05.448Z,1003.21
2018-01-21T05:15:30.915Z,1003.23
2018-01-21T05:15:56.364Z,1003.21
2018-01-21T05:16:21.838Z,1003.22
2018-01-21T05:16:47.309Z,1003.2
2018-01-21T05:17:12.739Z,1003.21
2018-01-21T05:17:38.213Z,1003.21
2018-01-21T05:18:03.644Z,1003.28
2018-01-21T05:18:29.113Z,1003.2
2018-01-21T05:18:54.596Z,1003.26
2018-01-21T05:19:20.038Z,1003.3
2018-01-21T05:19:45.515Z,1003.29
2018-01-21T05:20:10.991Z,1003.29
2018-01-21T05:20:36.427Z,1003.27
2018-01-21T05:21:01.882Z,1003.27
2018-01-21T05:21:27.353Z,1003.29
2018-01-21T05:21:52.781Z,1003.27
2018-01-21T05:22:18.275Z,1003.29
2018-01-21T05:22:43.722Z,1003.28
2018-01-21T05:23:09.212Z,1003.3
2018-01-21T05:23:34.679Z,1003.31
2018-01-21T05:24:00.144Z,1003.31
2018-01-21T05:24:25.601Z,1003.33
2018-01-21T05:24:51.082Z,1003.31
2018-01-21T05:25:16.556Z,1003.28
2018-01-21T05:25:42.024Z,1003.34
2018-01-21T05:26:07.509Z,1003.35
2018-01-21T05:26:32.972Z,1003.36
2018-01-21T05:26:58.446Z,1003.33
2018-01-21T05:27:23.893Z,1003.37
2018-01-21T05:27:49.375Z,1003.35
2018-01-21T05:28:14.823Z,1003.3
2018-01-21T05:28:40.280Z,1003.31
2018-01-21T05:29:05.751Z,1003.34
2018-01-21T05:29:31.217Z,1003.34
2018-01-21T05:29:56.687Z,1003.32
2018-01-21T05:30:22.153Z,1003.34
2018-01-21T05:30:47.621Z,1003.34
2018-01-21T05:31:13.069Z,1003.34
2018-01-21T05:31:38.526Z,1003.35
2018-01-21T05:32:03.998Z,1003.4
2018-01-21T05:32:29.493Z,1003.35
2018-01-21T05:32:54.931Z,1003.39
2018-01-21T05:33:20.447Z,1003.37
2018-01-21T05:33:45.837Z,1003.41
2018-01-21T05:34:11.321Z,1003.36
2018-01-21T05:34:36.769Z,1003.36
2018-01-21T05:35:02.230Z,1003.35
2018-01-21T05:35:27.702Z,1003.38
2018-01-21T05:35:53.171Z,1003.37
2018-01-21T05:36:18.638Z,1003.36
2018-01-21T05:36:44.083Z,1003.33
2018-01-21T05:37:09.572Z,1003.36
2018-01-21T05:37:35.019Z,1003.4
2018-01-21T05:38:00.516Z,1003.38
2018-01-21T05:38:25.982Z,1003.39
2018-01-21T05:38:51.455Z,1003.41
2018-01-21T05:39:16.946Z,1003.43
2018-01-21T05:39:42.355Z,1003.43
2018-01-21T05:40:07.801Z,1003.42
2018-01-21T05:40:33.290Z,1003.44
2018-01-21T05:40:58.797Z,1003.46
2018-01-21T05:41:24.251Z,1003.45
2018-01-21T05:41:49.695Z,1003.45
2018-01-21T05:42:15.179Z,1003.44
2018-01-21T05:42:40.651Z,1003.46
2018-01-21T05:43:06.132Z,1003.48
2018-01-21T05:43:31.571Z,1003.52
2018-01-21T05:43:57.056Z,1003.43
2018-01-21T05:44:22.501Z,1003.45
2018-01-21T05:45:41.364Z,1003.49
2018-01-21T05:46:06.857Z,1003.51
2018-01-21T05:46:32.366Z,1003.51
2018-01-21T05:46:57.816Z,1003.52
2018-01-21T05:47:23.294Z,1003.55
2018-01-21T05:47:48.815Z,1003.5
2018-01-21T05:48:14.251Z,1003.58
2018-01-21T05:48:39.766Z,1003.56
2018-01-21T05:49:05.303Z,1003.59
2018-01-21T05:49:30.787Z,1003.56
2018-01-21T05:49:56.275Z,1003.58
2018-01-21T05:50:21.793Z,1003.57
2018-01-21T05:50:47.305Z,1003.59
2018-01-21T05:51:12.764Z,1003.53
2018-01-21T05:51:38.220Z,1003.61
2018-01-21T05:52:03.749Z,1003.61
2018-01-21T05:52:29.136Z,1003.64
2018-01-21T05:52:54.617Z,1003.67
2018-01-21T05:53:20.073Z,1003.59
2018-01-21T05:53:45.547Z,1003.65
2018-01-21T05:54:11.023Z,1003.65
2018-01-21T05:54:36.460Z,1003.67
2018-01-21T05:55:01.926Z,1003.7
2018-01-21T05:55:27.391Z,1003.7
2018-01-21T05:55:52.840Z,1003.68
2018-01-21T05:56:18.296Z,1003.73
2018-01-21T05:56:43.799Z,1003.7
2018-01-21T05:57:09.241Z,1003.7
2018-01-21T05:57:34.731Z,1003.67
2018-01-21T05:58:00.216Z,1003.74
2018-01-21T05:58:25.632Z,1003.7
2018-01-21T05:58:51.095Z,1003.71
2018-01-21T05:59:16.668Z,1003.74
2018-01-21T05:59:42.067Z,1003.73
2018-01-21T06:00:07.510Z,1003.7
2018-01-21T06:00:32.988Z,1003.74
2018-01-21T06:00:58.454Z,1003.75
2018-01-21T06:01:23.911Z,1003.71
2018-01-21T06:01:49.394Z,1003.71
2018-01-21T06:02:14.876Z,1003.75
2018-01-21T06:02:40.323Z,1003.76
2018-01-21T06:03:05.816Z,1003.82
2018-01-21T06:03:31.294Z,1003.78
2018-01-21T06:03:56.741Z,1003.76
2018-01-21T06:04:22.256Z,1003.77
2018-01-21T06:04:47.694Z,1003.76
2018-01-21T06:05:13.189Z,1003.74
2018-01-21T06:05:38.670Z,1003.74
2018-01-21T06:06:04.157Z,1003.78
2018-01-21T06:06:29.603Z,1003.76
2018-01-21T06:06:55.048Z,1003.77
2018-01-21T06:07:20.521Z,1003.71
2018-01-21T06:07:45.998Z,1003.76
2018-01-21T06:08:11.480Z,1003.78
2018-01-21T06:08:36.928Z,1003.78
2018-01-21T06:09:02.388Z,1003.75
2018-01-21T06:09:27.865Z,1003.8
2018-01-21T06:09:53.330Z,1003.81
2018-01-21T06:10:18.836Z,1003.84
2018-01-21T06:10:44.289Z,1003.82
2018-01-21T06:11:09.743Z,1003.86
2018-01-21T06:11:35.197Z,1003.83
2018-01-21T06:12:00.678Z,1003.82
2018-01-21T06:12:26.123Z,1003.87
2018-01-21T06:12:51.585Z,1003.84
2018-01-21T06:13:17.030Z,1003.84
2018-01-21T06:13:42.501Z,1003.86
2018-01-21T06:14:07.968Z,1003.87
2018-01-21T06:14:33.439Z,1003.87
2018-01-21T06:14:58.892Z,1003.9
2018-01-21T06:15:24.359Z,1003.89
2018-01-21T06:15:49.818Z,1003.9
2018-01-21T06:16:15.258Z,1003.92
2018-01-21T06:16:40.738Z,1003.9
2018-01-21T06:17:06.243Z,1003.92
2018-01-21T06:17:31.637Z,1003.91
2018-01-21T06:17:57.112Z,1003.95
2018-01-21T06:18:22.588Z,1003.98
2018-01-21T06:18:48.046Z,1004
2018-01-21T06:19:13.497Z,1003.98
2018-01-21T06:19:38.952Z,1003.99
2018-01-21T06:20:04.447Z,1004.02
2018-01-21T06:20:29.895Z,1004.03
2018-01-21T06:20:55.331Z,1004
2018-01-21T06:21:20.827Z,1004.04
2018-01-21T06:21:46.299Z,1004.04
2018-01-21T06:22:49.860Z,1004.06
2018-01-21T06:23:15.347Z,1004.04
2018-01-21T06:23:40.871Z,1004.09
2018-01-21T06:24:06.333Z,1004.09
2018-01-21T06:24:31.792Z,1004.09
2018-01-21T06:24:57.256Z,1004.14
2018-01-21T06:25:22.743Z,1004.15
2018-01-21T06:25:48.251Z,1004.14
2018-01-21T06:26:13.731Z,1004.14
2018-01-21T06:26:39.193Z,1004.15
2018-01-21T06:27:04.656Z,1004.19
2018-01-21T06:27:30.182Z,1004.17
2018-01-21T06:27:55.629Z,1004.19
2018-01-21T06:28:21.106Z,1004.22
2018-01-21T06:28:46.573Z,1004.22
2018-01-21T06:29:12.042Z,1004.2
2018-01-21T06:29:37.502Z,1004.23
2018-01-21T06:30:02.976Z,1004.21
2018-01-21T06:30:28.451Z,1004.23
2018-01-21T06:30:53.893Z,1004.2
2018-01-21T06:31:19.361Z,1004.24
2018-01-21T06:31:44.818Z,1004.28
2018-01-21T06:32:10.282Z,1004.3
2018-01-21T06:32:35.800Z,1004.29
2018-01-21T06:33:44.499Z,1004.32
2018-01-21T06:34:09.994Z,1004.3
2018-01-21T06:34:35.478Z,1004.29
2018-01-21T06:35:00.943Z,1004.32
2018-01-21T06:35:26.436Z,1004.34
2018-01-21T06:35:51.867Z,1004.32
2018-01-21T06:36:17.322Z,1004.3
2018-01-21T06:36:42.780Z,1004.35
2018-01-21T06:38:01.665Z,1004.41
2018-01-21T06:38:27.147Z,1004.4
2018-01-21T06:38:52.626Z,1004.41
2018-01-21T06:39:18.108Z,1004.42
2018-01-21T06:39:43.586Z,1004.43
2018-01-21T06:40:09.033Z,1004.45
2018-01-21T06:40:34.477Z,1004.47
2018-01-21T06:41:38.096Z,1004.48
2018-01-21T06:42:03.572Z,1004.49
2018-01-21T06:42:29.041Z,1004.51
2018-01-21T06:43:37.697Z,1004.54
2018-01-21T06:44:03.224Z,1004.51
2018-01-21T06:44:28.692Z,1004.55
2018-01-21T06:44:54.147Z,1004.6
2018-01-21T06:45:19.630Z,1004.53
2018-01-21T06:45:45.045Z,1004.61
2018-01-21T06:46:10.497Z,1004.56
2018-01-21T06:46:35.998Z,1004.6
2018-01-21T06:47:01.467Z,1004.59
2018-01-21T06:47:26.976Z,1004.62
2018-01-21T06:47:52.432Z,1004.64
2018-01-21T06:48:17.934Z,1004.69
2018-01-21T06:48:43.394Z,1004.64
2018-01-21T06:49:08.911Z,1004.67
2018-01-21T06:49:34.411Z,1004.7
2018-01-21T06:49:59.882Z,1004.68
2018-01-21T06:50:25.348Z,1004.66
2018-01-21T06:50:50.808Z,1004.7
2018-01-21T06:51:16.265Z,1004.68
2018-01-21T06:51:41.720Z,1004.73
2018-01-21T06:52:07.247Z,1004.73
2018-01-21T06:52:32.766Z,1004.73
2018-01-21T06:52:58.232Z,1004.78
2018-01-21T06:53:23.692Z,1004.77
2018-01-21T06:53:49.271Z,1004.79
2018-01-21T06:54:14.659Z,1004.82
2018-01-21T06:54:40.110Z,1004.8
2018-01-21T06:55:05.587Z,1004.8
2018-01-21T06:55:31.078Z,1004.84
2018-01-21T06:55:56.555Z,1004.83
2018-01-21T06:56:22.018Z,1004.86
2018-01-21T06:56:47.508Z,1004.82
2018-01-21T06:57:13.000Z,1004.83
2018-01-21T06:57:38.488Z,1004.84
2018-01-21T06:58:03.964Z,1004.81
2018-01-21T06:58:29.424Z,1004.87
2018-01-21T06:58:54.866Z,1004.85
2018-01-21T06:59:20.347Z,1004.82
2018-01-21T06:59:45.809Z,1004.85
2018-01-21T07:00:11.283Z,1004.87
2018-01-21T07:00:36.746Z,1004.82
2018-01-21T07:01:02.236Z,1004.85
2018-01-21T07:01:27.712Z,1004.86
2018-01-21T07:01:53.170Z,1004.87
2018-01-21T07:02:18.641Z,1004.88
2018-01-21T07:02:44.085Z,1004.87
2018-01-21T07:03:09.597Z,1004.88
2018-01-21T07:03:35.045Z,1004.89
2018-01-21T07:04:00.523Z,1004.9
2018-01-21T07:04:25.988Z,1004.95
2018-01-21T07:04:51.416Z,1004.93
2018-01-21T07:05:16.920Z,1004.93
2018-01-21T07:05:42.391Z,1004.95
2018-01-21T07:06:07.844Z,1004.98
2018-01-21T07:06:33.338Z,1004.97
2018-01-21T07:06:58.824Z,1005.01
2018-01-21T07:07:24.266Z,1005.01
2018-01-21T07:07:49.709Z,1005.05
2018-01-21T07:08:15.165Z,1005.03
2018-01-21T07:08:40.651Z,1005.07
2018-01-21T07:09:06.124Z,1005.08
2018-01-21T07:09:31.597Z,1005.1
2018-01-21T07:09:57.079Z,1005.12
2018-01-21T07:10:22.552Z,1005.13
2018-01-21T07:10:48.022Z,1005.13
2018-01-21T07:11:13.480Z,1005.1
2018-01-21T07:11:38.949Z,1005.11
2018-01-21T07:12:04.417Z,1005.13
2018-01-21T07:12:29.938Z,1005.12
2018-01-21T07:12:55.369Z,1005.09
2018-01-21T07:13:20.831Z,1005.11
2018-01-21T07:13:46.325Z,1005.18
2018-01-21T07:14:11.824Z,1005.13
2018-01-21T07:14:37.330Z,1005.11
2018-01-21T07:15:02.756Z,1005.11
2018-01-21T07:15:28.235Z,1005.15
2018-01-21T07:15:53.731Z,1005.18
2018-01-21T07:16:19.216Z,1005.13
2018-01-21T07:16:44.709Z,1005.14
2018-01-21T07:17:10.156Z,1005.13
2018-01-21T07:17:35.639Z,1005.16
2018-01-21T07:18:01.112Z,1005.18
2018-01-21T07:18:26.577Z,1005.22
2018-01-21T07:18:52.107Z,1005.22
2018-01-21T07:19:17.563Z,1005.25
2018-01-21T07:19:43.027Z,1005.26
2018-01-21T07:20:08.517Z,1005.23
2018-01-21T07:20:33.968Z,1005.29
2018-01-21T07:20:59.445Z,1005.29
2018-01-21T07:21:24.919Z,1005.27
2018-01-21T07:21:50.394Z,1005.31
2018-01-21T07:22:15.885Z,1005.26
2018-01-21T07:22:41.332Z,1005.27
2018-01-21T07:23:06.820Z,1005.31
2018-01-21T07:23:32.280Z,1005.29
2018-01-21T07:23:57.774Z,1005.26
2018-01-21T07:24:23.228Z,1005.27
2018-01-21T07:24:48.737Z,1005.3
2018-01-21T07:25:14.167Z,1005.34
2018-01-21T07:25:39.631Z,1005.36
2018-01-21T07:26:05.083Z,1005.33
2018-01-21T07:27:13.782Z,1005.34
2018-01-21T07:27:39.256Z,1005.38
2018-01-21T07:28:58.279Z,1005.46
2018-01-21T07:29:23.779Z,1005.41
2018-01-21T07:29:49.295Z,1005.4
2018-01-21T07:30:14.781Z,1005.47
2018-01-21T07:30:40.291Z,1005.49
2018-01-21T07:31:05.735Z,1005.49
2018-01-21T07:31:31.236Z,1005.49
2018-01-21T07:31:56.693Z,1005.53
2018-01-21T07:32:22.160Z,1005.53
2018-01-21T07:32:47.651Z,1005.51
2018-01-21T07:33:13.112Z,1005.56
2018-01-21T07:33:38.583Z,1005.57
2018-01-21T07:34:04.053Z,1005.55
2018-01-21T07:34:29.601Z,1005.61
2018-01-21T07:34:55.025Z,1005.57
2018-01-21T07:35:20.477Z,1005.59
2018-01-21T07:35:45.946Z,1005.58
2018-01-21T07:36:11.399Z,1005.6
2018-01-21T07:36:36.883Z,1005.6
2018-01-21T07:37:02.365Z,1005.58
2018-01-21T07:37:27.867Z,1005.65
2018-01-21T07:37:53.319Z,1005.62
2018-01-21T07:38:18.768Z,1005.69
2018-01-21T07:38:44.222Z,1005.66
2018-01-21T07:39:09.774Z,1005.67
2018-01-21T07:39:35.198Z,1005.7
2018-01-21T07:40:00.675Z,1005.73
2018-01-21T07:40:26.148Z,1005.75
2018-01-21T07:40:51.625Z,1005.76
2018-01-21T07:41:17.086Z,1005.71
2018-01-21T07:41:42.551Z,1005.7
2018-01-21T07:42:08.016Z,1005.73
2018-01-21T07:42:33.494Z,1005.74
2018-01-21T07:42:58.987Z,1005.78
2018-01-21T07:43:24.442Z,1005.79
2018-01-21T07:43:49.905Z,1005.79
2018-01-21T07:44:15.383Z,1005.83
2018-01-21T07:44:40.882Z,1005.83
2018-01-21T07:45:06.333Z,1005.9
2018-01-21T07:45:31.784Z,1005.89
2018-01-21T07:45:57.242Z,1005.86
2018-01-21T07:46:22.738Z,1005.92
2018-01-21T07:46:48.195Z,1005.89
2018-01-21T07:47:13.663Z,1005.95
2018-01-21T07:47:39.130Z,1005.87
2018-01-21T07:48:04.630Z,1005.92
2018-01-21T07:48:30.072Z,1005.89
2018-01-21T07:48:55.565Z,1005.94
2018-01-21T07:49:21.062Z,1005.94
2018-01-21T07:49:46.510Z,1005.99
2018-01-21T07:50:11.958Z,1005.98
2018-01-21T07:50:37.417Z,1005.96
2018-01-21T07:51:02.892Z,1005.97
2018-01-21T07:51:28.354Z,1006.02
2018-01-21T07:51:53.832Z,1006.01
2018-01-21T07:52:19.321Z,1006.02
2018-01-21T07:52:44.781Z,1006.03
2018-01-21T07:53:10.241Z,1006.03
2018-01-21T07:53:35.686Z,1006.05
2018-01-21T07:54:01.188Z,1006.07
2018-01-21T07:54:26.641Z,1006.04
2018-01-21T07:54:52.119Z,1006.11
2018-01-21T07:55:17.626Z,1006.14
2018-01-21T07:55:43.051Z,1006.11
2018-01-21T07:56:08.517Z,1006.15
2018-01-21T07:56:33.984Z,1006.21
2018-01-21T07:56:59.435Z,1006.16
2018-01-21T07:58:08.157Z,1006.21
2018-01-21T07:58:33.631Z,1006.22
2018-01-21T07:58:59.118Z,1006.18
2018-01-21T07:59:24.599Z,1006.23
2018-01-21T07:59:50.197Z,1006.17
2018-01-21T08:00:15.662Z,1006.19
2018-01-21T08:00:41.153Z,1006.2
2018-01-21T08:01:06.613Z,1006.2
2018-01-21T08:01:32.047Z,1006.25
2018-01-21T08:01:57.500Z,1006.24
2018-01-21T08:02:22.981Z,1006.24
2018-01-21T08:02:48.432Z,1006.24
2018-01-21T08:03:13.919Z,1006.27
2018-01-21T08:03:39.359Z,1006.28
2018-01-21T08:04:04.822Z,1006.29
2018-01-21T08:04:30.290Z,1006.3
2018-01-21T08:04:55.786Z,1006.33
2018-01-21T08:05:21.243Z,1006.31
2018-01-21T08:05:46.712Z,1006.32
2018-01-21T08:06:12.198Z,1006.31
2018-01-21T08:06:37.649Z,1006.34
2018-01-21T08:07:03.088Z,1006.3
2018-01-21T08:07:28.566Z,1006.35
2018-01-21T08:07:54.021Z,1006.34
2018-01-21T08:08:19.486Z,1006.38
2018-01-21T08:08:44.963Z,1006.37
2018-01-21T08:09:10.447Z,1006.41
2018-01-21T08:09:35.974Z,1006.4
2018-01-21T08:10:01.347Z,1006.41
2018-01-21T08:10:26.810Z,1006.43
2018-01-21T08:10:52.282Z,1006.46
2018-01-21T08:11:17.733Z,1006.47
2018-01-21T08:11:43.220Z,1006.44
2018-01-21T08:12:08.664Z,1006.48
2018-01-21T08:12:34.143Z,1006.46
2018-01-21T08:12:59.569Z,1006.45
2018-01-21T08:13:25.108Z,1006.43
2018-01-21T08:13:50.600Z,1006.42
2018-01-21T08:14:16.082Z,1006.45
2018-01-21T08:14:41.582Z,1006.49
2018-01-21T08:15:07.050Z,1006.45
2018-01-21T08:15:32.531Z,1006.49
2018-01-21T08:15:57.986Z,1006.54
2018-01-21T08:16:23.478Z,1006.52
2018-01-21T08:16:48.941Z,1006.55
2018-01-21T08:17:14.421Z,1006.5
2018-01-21T08:17:39.876Z,1006.52
2018-01-21T08:18:05.340Z,1006.54
2018-01-21T08:18:30.797Z,1006.47
2018-01-21T08:18:56.256Z,1006.54
2018-01-21T08:19:21.716Z,1006.53
2018-01-21T08:19:47.158Z,1006.54
2018-01-21T08:20:55.845Z,1006.56
2018-01-21T08:21:21.319Z,1006.58
2018-01-21T08:21:46.825Z,1006.61
2018-01-21T08:22:12.284Z,1006.59
2018-01-21T08:22:37.746Z,1006.61
2018-01-21T08:23:03.215Z,1006.61
2018-01-21T08:23:28.675Z,1006.62
2018-01-21T08:23:54.156Z,1006.66
2018-01-21T08:24:19.604Z,1006.7
2018-01-21T08:24:45.054Z,1006.69
2018-01-21T08:25:10.516Z,1006.71
2018-01-21T08:25:36.056Z,1006.71
2018-01-21T08:26:01.470Z,1006.69
2018-01-21T08:26:26.925Z,1006.72
2018-01-21T08:26:52.412Z,1006.74
2018-01-21T08:27:17.864Z,1006.72
2018-01-21T08:27:43.332Z,1006.75
2018-01-21T08:28:08.815Z,1006.79
2018-01-21T08:28:34.304Z,1006.78
2018-01-21T08:28:59.742Z,1006.77
2018-01-21T08:29:25.232Z,1006.75
2018-01-21T08:29:50.711Z,1006.73
2018-01-21T08:30:16.157Z,1006.76
2018-01-21T08:30:41.625Z,1006.76
2018-01-21T08:31:07.129Z,1006.76
2018-01-21T08:31:32.543Z,1006.77
2018-01-21T08:31:57.988Z,1006.81
2018-01-21T08:32:23.470Z,1006.84
2018-01-21T08:32:48.915Z,1006.8
2018-01-21T08:33:14.403Z,1006.84
2018-01-21T08:33:39.859Z,1006.87
2018-01-21T08:34:05.347Z,1006.84
2018-01-21T08:34:30.807Z,1006.83
2018-01-21T08:34:56.278Z,1006.8
2018-01-21T08:35:21.773Z,1006.82
2018-01-21T08:35:47.202Z,1006.82
2018-01-21T08:36:12.664Z,1006.81
2018-01-21T08:36:38.136Z,1006.81
2018-01-21T08:37:03.626Z,1006.86
2018-01-21T08:37:29.080Z,1006.85
2018-01-21T08:37:54.545Z,1006.85
2018-01-21T08:38:20.048Z,1006.87
2018-01-21T08:38:45.571Z,1006.85
2018-01-21T08:39:11.036Z,1006.89
2018-01-21T08:39:36.559Z,1006.88
2018-01-21T08:40:01.995Z,1006.85
2018-01-21T08:40:27.463Z,1006.85
2018-01-21T08:40:52.926Z,1006.86
2018-01-21T08:41:18.418Z,1006.89
2018-01-21T08:41:43.864Z,1006.9
2018-01-21T08:42:52.604Z,1006.9
2018-01-21T08:43:18.066Z,1006.93
2018-01-21T08:43:43.553Z,1006.88
2018-01-21T08:44:09.014Z,1006.91
2018-01-21T08:44:34.459Z,1006.93
2018-01-21T08:44:59.934Z,1006.97
2018-01-21T08:45:25.390Z,1006.95
2018-01-21T08:45:50.853Z,1006.96
2018-01-21T08:46:16.332Z,1006.95
2018-01-21T08:46:41.836Z,1007.01
2018-01-21T08:47:07.294Z,1006.9
2018-01-21T08:47:32.794Z,1006.93
2018-01-21T08:47:58.238Z,1006.96
2018-01-21T08:48:23.695Z,1006.99
2018-01-21T08:48:49.156Z,1006.93
2018-01-21T08:49:14.645Z,1006.92
2018-01-21T08:49:40.109Z,1006.92
2018-01-21T08:50:05.564Z,1006.91
2018-01-21T08:50:31.051Z,1006.93
2018-01-21T08:50:56.505Z,1006.94
2018-01-21T08:51:21.969Z,1006.94
2018-01-21T08:51:47.420Z,1006.93
2018-01-21T08:52:12.881Z,1006.92
2018-01-21T08:52:38.339Z,1006.97
2018-01-21T08:53:03.800Z,1006.97
2018-01-21T08:53:29.257Z,1006.99
2018-01-21T08:53:54.765Z,1006.98
2018-01-21T08:54:20.188Z,1006.97
2018-01-21T08:54:45.683Z,1006.94
2018-01-21T08:55:11.131Z,1007
2018-01-21T08:55:36.638Z,1007.02
2018-01-21T08:56:02.105Z,1006.95
2018-01-21T08:56:27.607Z,1006.99
2018-01-21T08:56:53.055Z,1006.99
2018-01-21T08:57:18.482Z,1006.99
2018-01-21T08:57:43.973Z,1007.05
2018-01-21T08:58:09.666Z,1007.03
2018-01-21T08:58:35.115Z,1007.06
2018-01-21T08:59:00.559Z,1007.06
2018-01-21T08:59:26.019Z,1007.08
2018-01-21T08:59:51.481Z,1007.1
2018-01-21T09:00:16.972Z,1007.13
2018-01-21T09:00:42.494Z,1007.13
2018-01-21T09:01:07.957Z,1007.12
2018-01-21T09:01:33.421Z,1007.12
2018-01-21T09:01:58.884Z,1007.14
2018-01-21T09:02:24.355Z,1007.18
2018-01-21T09:02:49.823Z,1007.16
2018-01-21T09:03:15.380Z,1007.14
2018-01-21T09:03:40.850Z,1007.17
2018-01-21T09:04:06.329Z,1007.14
2018-01-21T09:04:31.792Z,1007.19
2018-01-21T09:04:57.282Z,1007.21
2018-01-21T09:05:22.736Z,1007.22
2018-01-21T09:05:48.213Z,1007.22
2018-01-21T09:06:13.692Z,1007.22
2018-01-21T09:06:39.126Z,1007.23
2018-01-21T09:07:04.603Z,1007.3
2018-01-21T09:07:30.058Z,1007.29
2018-01-21T09:07:55.519Z,1007.27
2018-01-21T09:08:20.994Z,1007.24
2018-01-21T09:08:46.487Z,1007.27
2018-01-21T09:09:11.953Z,1007.26
2018-01-21T09:09:37.438Z,1007.28
2018-01-21T09:10:02.916Z,1007.32
2018-01-21T09:10:28.388Z,1007.3
2018-01-21T09:10:53.853Z,1007.31
2018-01-21T09:11:19.350Z,1007.27
2018-01-21T09:11:44.813Z,1007.25
2018-01-21T09:12:10.294Z,1007.28
2018-01-21T09:12:35.757Z,1007.27
2018-01-21T09:13:01.314Z,1007.32
2018-01-21T09:13:26.761Z,1007.25
2018-01-21T09:13:52.240Z,1007.27
2018-01-21T09:14:17.706Z,1007.31
2018-01-21T09:14:43.155Z,1007.32
2018-01-21T09:15:08.641Z,1007.36
2018-01-21T09:15:34.128Z,1007.36
2018-01-21T09:15:59.603Z,1007.36
2018-01-21T09:16:25.054Z,1007.36
2018-01-21T09:16:50.537Z,1007.4
2018-01-21T09:17:15.990Z,1007.41
2018-01-21T09:17:41.475Z,1007.44
2018-01-21T09:18:06.986Z,1007.42
2018-01-21T09:18:32.436Z,1007.37
2018-01-21T09:18:57.883Z,1007.38
2018-01-21T09:19:23.372Z,1007.37
2018-01-21T09:19:48.865Z,1007.34
2018-01-21T09:20:14.470Z,1007.36
2018-01-21T09:20:39.928Z,1007.42
2018-01-21T09:21:05.395Z,1007.38
2018-01-21T09:21:30.875Z,1007.41
2018-01-21T09:21:56.372Z,1007.4
2018-01-21T09:22:21.845Z,1007.47
2018-01-21T09:22:47.343Z,1007.44
2018-01-21T09:23:12.753Z,1007.47
2018-01-21T09:23:38.249Z,1007.46
2018-01-21T09:24:03.708Z,1007.44
2018-01-21T09:24:29.192Z,1007.46
2018-01-21T09:24:54.737Z,1007.49
2018-01-21T09:25:20.162Z,1007.47
2018-01-21T09:25:45.678Z,1007.48
2018-01-21T09:26:11.128Z,1007.54
2018-01-21T09:26:36.556Z,1007.55
2018-01-21T09:27:02.021Z,1007.52
2018-01-21T09:27:27.522Z,1007.58
2018-01-21T09:27:52.998Z,1007.58
2018-01-21T09:28:18.461Z,1007.56
2018-01-21T09:28:43.976Z,1007.6
2018-01-21T09:29:09.458Z,1007.62
2018-01-21T09:29:34.938Z,1007.6
2018-01-21T09:30:00.398Z,1007.67
2018-01-21T09:30:25.862Z,1007.65
2018-01-21T09:30:51.318Z,1007.65
2018-01-21T09:31:16.817Z,1007.64
2018-01-21T09:31:42.272Z,1007.7
2018-01-21T09:32:07.737Z,1007.68
2018-01-21T09:32:33.186Z,1007.74
2018-01-21T09:32:58.694Z,1007.69
2018-01-21T09:33:24.150Z,1007.71
2018-01-21T09:33:49.642Z,1007.74
2018-01-21T09:34:15.125Z,1007.74
2018-01-21T09:34:40.551Z,1007.74
2018-01-21T09:35:06.069Z,1007.73
2018-01-21T09:35:31.516Z,1007.74
2018-01-21T09:35:57.001Z,1007.77
2018-01-21T09:36:22.434Z,1007.76
2018-01-21T09:36:47.916Z,1007.72
2018-01-21T09:37:13.374Z,1007.72
2018-01-21T09:37:38.883Z,1007.72
2018-01-21T09:38:04.299Z,1007.7
2018-01-21T09:38:29.800Z,1007.72
2018-01-21T09:38:55.252Z,1007.71
2018-01-21T09:39:20.698Z,1007.72
2018-01-21T09:39:46.178Z,1007.71
2018-01-21T09:40:11.626Z,1007.7
2018-01-21T09:40:37.092Z,1007.75
2018-01-21T09:41:02.571Z,1007.75
2018-01-21T09:41:28.030Z,1007.77
2018-01-21T09:41:53.493Z,1007.79
2018-01-21T09:42:18.998Z,1007.77
2018-01-21T09:42:44.435Z,1007.81
2018-01-21T09:43:09.912Z,1007.79
2018-01-21T09:43:35.388Z,1007.75
2018-01-21T09:44:00.852Z,1007.79
2018-01-21T09:44:26.459Z,1007.79
2018-01-21T09:44:51.918Z,1007.74
2018-01-21T09:45:17.413Z,1007.75
2018-01-21T09:45:42.892Z,1007.76
2018-01-21T09:46:08.333Z,1007.71
2018-01-21T09:46:33.838Z,1007.73
2018-01-21T09:46:59.292Z,1007.71
2018-01-21T09:47:24.770Z,1007.72
2018-01-21T09:47:50.246Z,1007.7
2018-01-21T09:48:15.826Z,1007.75
2018-01-21T09:48:41.163Z,1007.7
2018-01-21T09:49:06.642Z,1007.72
2018-01-21T09:49:32.110Z,1007.75
2018-01-21T09:49:57.595Z,1007.74
2018-01-21T09:50:23.066Z,1007.76
2018-01-21T09:50:48.538Z,1007.76
2018-01-21T09:51:13.974Z,1007.78
2018-01-21T09:51:39.445Z,1007.8
2018-01-21T09:52:04.921Z,1007.83
2018-01-21T09:52:30.378Z,1007.8
2018-01-21T09:52:55.866Z,1007.85
2018-01-21T09:53:21.369Z,1007.84
2018-01-21T09:53:46.886Z,1007.83
2018-01-21T09:54:12.365Z,1007.82
2018-01-21T09:54:37.830Z,1007.86
2018-01-21T09:55:03.299Z,1007.88
2018-01-21T09:55:28.801Z,1007.87
2018-01-21T09:55:54.244Z,1007.87
2018-01-21T09:56:19.700Z,1007.9
2018-01-21T09:56:45.183Z,1007.9
2018-01-21T09:57:10.722Z,1007.87
2018-01-21T09:57:36.094Z,1007.9
2018-01-21T09:58:01.571Z,1007.94
2018-01-21T09:58:27.057Z,1007.91
2018-01-21T09:58:52.519Z,1007.94
2018-01-21T09:59:17.954Z,1007.95
2018-01-21T09:59:43.413Z,1007.95
2018-01-21T10:00:08.884Z,1007.95
2018-01-21T10:00:34.375Z,1007.92
2018-01-21T10:00:59.834Z,1007.93
2018-01-21T10:01:25.298Z,1007.95
2018-01-21T10:01:50.745Z,1007.99
2018-01-21T10:02:16.262Z,1007.97
2018-01-21T10:02:41.710Z,1007.94
2018-01-21T10:03:07.153Z,1008.02
2018-01-21T10:03:32.807Z,1007.99
2018-01-21T10:03:58.212Z,1008.02
2018-01-21T10:04:23.796Z,1008.01
2018-01-21T10:04:49.221Z,1008.02
2018-01-21T10:05:14.679Z,1008
2018-01-21T10:05:40.149Z,1008
2018-01-21T10:06:05.617Z,1008.02
2018-01-21T10:06:31.061Z,1008.06
2018-01-21T10:06:56.517Z,1008.02
2018-01-21T10:07:21.962Z,1008.06
2018-01-21T10:07:47.418Z,1008.04
2018-01-21T10:08:12.872Z,1008.09
2018-01-21T10:08:38.358Z,1008.1
2018-01-21T10:09:03.826Z,1008.11
2018-01-21T10:09:29.322Z,1008.13
2018-01-21T10:09:54.725Z,1008.12
2018-01-21T10:10:20.219Z,1008.17
2018-01-21T10:10:45.824Z,1008.2
2018-01-21T10:11:11.187Z,1008.17
2018-01-21T10:11:36.685Z,1008.13
2018-01-21T10:12:02.149Z,1008.19
2018-01-21T10:12:27.621Z,1008.19
2018-01-21T10:12:53.105Z,1008.22
2018-01-21T10:13:18.589Z,1008.22
2018-01-21T10:13:44.248Z,1008.26
2018-01-21T10:14:09.644Z,1008.27
2018-01-21T10:14:35.146Z,1008.28
2018-01-21T10:15:00.664Z,1008.28
2018-01-21T10:15:26.050Z,1008.3
2018-01-21T10:15:51.568Z,1008.31
2018-01-21T10:16:17.091Z,1008.3
2018-01-21T10:16:42.576Z,1008.27
2018-01-21T10:17:08.066Z,1008.33
2018-01-21T10:17:33.553Z,1008.33
2018-01-21T10:17:58.996Z,1008.33
2018-01-21T10:18:24.587Z,1008.36
2018-01-21T10:18:49.960Z,1008.32